createdAt,value
2022-08-01T00:00:59.845Z,72.80
2022-08-01T00:05:08.938Z,73.00
2022-08-01T00:09:23.628Z,73.42
2022-08-01T00:13:32.181Z,73.86
2022-08-01T00:17:40.229Z,74.05
2022-08-01T00:21:51.813Z,74.36
2022-08-01T00:26:00.784Z,74.62
2022-08-01T00:30:14.634Z,75.16
2022-08-01T00:34:22.661Z,75.00
2022-08-01T00:38:32.461Z,74.91
2022-08-01T00:42:43.449Z,75.23
2022-08-01T00:46:51.237Z,75.40
2022-08-01T00:50:58.895Z,75.50
2022-08-01T00:55:07.445Z,75.59
2022-08-01T00:59:15.418Z,76.02
2022-08-01T01:03:26.289Z,76.00
2022-08-01T01:07:49.712Z,76.15
2022-08-01T01:12:08.745Z,76.37
2022-08-01T01:16:18.246Z,76.29
2022-08-01T01:20:29.742Z,76.52
2022-08-01T01:24:47.719Z,76.68
2022-08-01T01:29:11.186Z,76.94
2022-08-01T01:33:20.067Z,77.04
2022-08-01T01:37:29.552Z,77.11
2022-08-01T01:41:38.096Z,76.97
2022-08-01T01:45:46.046Z,77.21
2022-08-01T01:49:53.915Z,77.12
2022-08-01T01:54:01.994Z,77.14
2022-08-01T01:58:10.862Z,77.21
2022-08-01T02:02:19.397Z,77.07
2022-08-01T02:06:28.070Z,77.02
2022-08-01T02:10:39.587Z,76.98
2022-08-01T02:14:48.301Z,76.84
2022-08-01T02:18:56.410Z,76.94
2022-08-01T02:23:07.226Z,76.73
2022-08-01T02:27:18.108Z,77.04
2022-08-01T02:31:27.197Z,77.01
2022-08-01T02:36:30.375Z,77.03
2022-08-01T02:40:06.454Z,77.14
2022-08-01T02:44:22.663Z,77.42
2022-08-01T02:48:31.110Z,77.68
2022-08-01T02:52:40.794Z,77.80
2022-08-01T02:56:49.325Z,78.06
2022-08-01T03:00:57.938Z,78.50
2022-08-01T03:05:07.664Z,78.64
2022-08-01T03:09:16.811Z,78.74
2022-08-01T03:13:26.328Z,78.72
2022-08-01T03:17:34.888Z,78.72
2022-08-01T03:21:43.661Z,78.98
2022-08-01T03:25:51.870Z,79.10
2022-08-01T03:30:02.326Z,79.18
2022-08-01T03:34:11.251Z,79.26
2022-08-01T03:38:22.042Z,79.12
2022-08-01T03:42:34.302Z,78.92
2022-08-01T03:46:47.996Z,78.62
2022-08-01T03:50:56.743Z,78.40
2022-08-01T03:55:08.527Z,78.35
2022-08-01T03:59:16.758Z,78.35
2022-08-01T04:03:25.342Z,78.16
2022-08-01T04:07:37.529Z,78.03
2022-08-01T04:11:45.278Z,78.04
2022-08-01T04:15:53.296Z,78.01
2022-08-01T04:20:02.488Z,78.32
2022-08-01T04:24:15.368Z,78.49
2022-08-01T04:28:25.041Z,78.58
2022-08-01T04:32:34.687Z,78.93
2022-08-01T04:36:43.215Z,78.82
2022-08-01T04:40:51.687Z,78.61
2022-08-01T04:44:59.404Z,78.42
2022-08-01T04:49:10.284Z,78.30
2022-08-01T04:53:23.152Z,77.99
2022-08-01T04:57:30.669Z,77.63
2022-08-01T05:01:38.659Z,77.35
2022-08-01T05:05:46.320Z,77.04
2022-08-01T05:09:54.479Z,76.59
2022-08-01T05:14:02.105Z,76.43
2022-08-01T05:18:09.833Z,76.18
2022-08-01T05:22:18.522Z,76.10
2022-08-01T05:26:26.610Z,75.75
2022-08-01T05:30:34.024Z,75.84
2022-08-01T05:34:41.679Z,75.71
2022-08-01T05:38:49.379Z,75.72
2022-08-01T05:42:56.957Z,75.55
2022-08-01T05:47:05.358Z,75.25
2022-08-01T05:51:12.980Z,75.13
2022-08-01T05:55:21.343Z,75.12
2022-08-01T05:59:28.772Z,74.71
2022-08-01T06:03:36.170Z,74.39
2022-08-01T06:07:45.124Z,74.40
2022-08-01T06:11:52.531Z,73.97
2022-08-01T06:16:00.182Z,73.84
2022-08-01T06:20:09.788Z,73.71
2022-08-01T06:24:17.468Z,73.33
2022-08-01T06:28:25.292Z,72.96
2022-08-01T06:32:32.665Z,72.72
2022-08-01T06:36:40.382Z,72.49
2022-08-01T06:40:47.908Z,71.77
2022-08-01T06:44:55.324Z,71.25
2022-08-01T06:49:02.868Z,70.45
2022-08-01T06:53:10.275Z,70.07
2022-08-01T06:57:18.752Z,68.95
2022-08-01T07:01:26.059Z,67.61
2022-08-01T07:05:33.495Z,66.25
2022-08-01T07:09:43.654Z,65.08
2022-08-01T07:13:51.307Z,64.85
2022-08-01T07:18:02.761Z,64.80
2022-08-01T07:22:13.733Z,64.57
2022-08-01T07:26:31.125Z,64.31
2022-08-01T07:30:38.846Z,64.72
2022-08-01T07:34:46.393Z,65.39
2022-08-01T07:38:54.275Z,65.27
2022-08-01T07:43:02.435Z,64.91
2022-08-01T07:47:10.858Z,65.00
2022-08-01T07:51:19.800Z,65.01
2022-08-01T07:55:27.461Z,64.96
2022-08-01T07:59:35.677Z,64.63
2022-08-01T08:03:45.700Z,64.82
2022-08-01T08:07:54.786Z,64.88
2022-08-01T08:12:02.197Z,63.99
2022-08-01T08:16:10.204Z,63.48
2022-08-01T08:20:18.137Z,63.76
2022-08-01T08:24:27.389Z,64.24
2022-08-01T08:28:34.886Z,64.65
2022-08-01T08:32:43.187Z,65.54
2022-08-01T08:36:51.095Z,65.96
2022-08-01T08:41:00.105Z,66.14
2022-08-01T08:45:11.912Z,66.12
2022-08-01T08:49:23.535Z,64.91
2022-08-01T08:53:34.741Z,64.53
2022-08-01T08:57:47.225Z,64.43
2022-08-01T09:01:55.067Z,64.42
2022-08-01T09:06:02.654Z,64.21
2022-08-01T09:10:12.114Z,63.72
2022-08-01T09:14:25.294Z,63.60
2022-08-01T09:18:36.710Z,63.23
2022-08-01T09:22:47.698Z,62.92
2022-08-01T09:26:55.898Z,62.37
2022-08-01T09:31:10.177Z,61.10
2022-08-01T09:35:36.240Z,59.69
2022-08-01T09:39:46.477Z,58.95
2022-08-01T09:43:54.651Z,58.81
2022-08-01T09:48:11.263Z,58.56
2022-08-01T09:52:20.367Z,58.06
2022-08-01T09:56:40.520Z,58.03
2022-08-01T10:01:02.584Z,57.33
2022-08-01T10:05:20.812Z,56.47
2022-08-01T10:09:40.174Z,56.64
2022-08-01T10:13:48.785Z,56.15
2022-08-01T10:17:59.458Z,55.97
2022-08-01T10:22:10.332Z,55.74
2022-08-01T10:26:20.121Z,55.91
2022-08-01T10:30:31.339Z,55.80
2022-08-01T10:34:39.679Z,55.63
2022-08-01T10:38:53.747Z,55.77
2022-08-01T10:43:02.395Z,55.55
2022-08-01T10:47:22.484Z,55.28
2022-08-01T10:51:51.325Z,54.87
2022-08-01T10:56:13.253Z,54.79
2022-08-01T11:00:25.386Z,55.78
2022-08-01T11:04:47.062Z,55.51
2022-08-01T11:08:57.478Z,54.85
2022-08-01T11:13:08.801Z,54.77
2022-08-01T11:17:42.121Z,54.52
2022-08-01T11:22:05.994Z,54.08
2022-08-01T11:26:18.380Z,54.32
2022-08-01T11:30:38.146Z,54.54
2022-08-01T11:34:59.843Z,54.23
2022-08-01T11:39:21.964Z,54.47
2022-08-01T11:43:30.814Z,54.80
2022-08-01T11:47:50.901Z,55.28
2022-08-01T11:52:05.474Z,55.05
2022-08-01T11:56:13.446Z,54.16
2022-08-01T12:00:27.019Z,52.19
2022-08-01T12:04:53.982Z,51.87
2022-08-01T12:09:19.274Z,51.52
2022-08-01T12:13:27.224Z,51.69
2022-08-01T12:17:36.708Z,51.77
2022-08-01T12:21:44.771Z,51.73
2022-08-01T12:25:55.798Z,51.11
2022-08-01T12:30:04.349Z,50.90
2022-08-01T12:34:30.808Z,49.41
2022-08-01T12:38:38.356Z,49.89
2022-08-01T12:42:47.451Z,50.32
2022-08-01T12:46:55.539Z,51.43
2022-08-01T12:51:03.761Z,52.02
2022-08-01T12:55:17.182Z,50.66
2022-08-01T12:59:27.578Z,50.51
2022-08-01T13:03:35.233Z,48.85
2022-08-01T13:07:46.094Z,48.76
2022-08-01T13:12:04.431Z,47.87
2022-08-01T13:16:18.185Z,47.93
2022-08-01T13:20:38.127Z,48.11
2022-08-01T13:24:46.011Z,48.50
2022-08-01T13:29:09.096Z,49.33
2022-08-01T13:33:18.784Z,48.82
2022-08-01T13:37:29.434Z,48.68
2022-08-01T13:41:39.515Z,48.91
2022-08-01T13:45:47.787Z,49.91
2022-08-01T13:49:55.637Z,49.93
2022-08-01T13:54:05.399Z,49.50
2022-08-01T13:58:14.077Z,49.11
2022-08-01T14:02:24.392Z,48.70
2022-08-01T14:06:32.039Z,48.69
2022-08-01T14:10:40.059Z,48.10
2022-08-01T14:14:47.671Z,47.66
2022-08-01T14:18:55.512Z,47.54
2022-08-01T14:23:03.289Z,46.77
2022-08-01T14:27:11.099Z,45.92
2022-08-01T14:31:18.852Z,46.25
2022-08-01T14:35:26.403Z,46.06
2022-08-01T14:39:34.017Z,46.04
2022-08-01T14:43:42.290Z,45.84
2022-08-01T14:47:50.351Z,46.13
2022-08-01T14:51:57.714Z,45.59
2022-08-01T14:56:05.270Z,44.92
2022-08-01T15:00:15.279Z,45.34
2022-08-01T15:04:23.538Z,45.54
2022-08-01T15:08:32.998Z,46.20
2022-08-01T15:12:50.247Z,46.40
2022-08-01T15:16:58.466Z,47.55
2022-08-01T15:21:05.868Z,48.24
2022-08-01T15:25:13.882Z,49.67
2022-08-01T15:29:21.418Z,50.81
2022-08-01T15:33:30.923Z,51.66
2022-08-01T15:37:43.119Z,52.32
2022-08-01T15:41:51.100Z,52.32
2022-08-01T15:46:02.148Z,52.15
2022-08-01T15:50:10.685Z,52.48
2022-08-01T15:54:18.427Z,53.04
2022-08-01T15:58:26.234Z,53.94
2022-08-01T16:02:34.444Z,54.73
2022-08-01T16:06:42.501Z,54.22
2022-08-01T16:10:49.883Z,54.39
2022-08-01T16:14:59.639Z,53.82
2022-08-01T16:19:07.793Z,53.80
2022-08-01T16:23:16.082Z,54.10
2022-08-01T16:27:27.149Z,54.61
2022-08-01T16:31:50.754Z,54.61
2022-08-01T16:36:03.395Z,54.52
2022-08-01T16:40:13.435Z,54.98
2022-08-01T16:44:28.665Z,55.67
2022-08-01T16:48:44.740Z,56.54
2022-08-01T16:52:52.449Z,56.92
2022-08-01T16:57:08.367Z,56.85
2022-08-01T17:01:56.155Z,57.69
2022-08-01T17:05:47.355Z,58.63
2022-08-01T17:09:54.995Z,59.31
2022-08-01T17:14:02.559Z,60.06
2022-08-01T17:18:11.558Z,60.67
2022-08-01T17:22:19.539Z,60.99
2022-08-01T17:26:26.943Z,61.84
2022-08-01T17:30:34.632Z,62.70
2022-08-01T17:34:42.381Z,63.28
2022-08-01T17:38:50.081Z,64.43
2022-08-01T17:42:57.477Z,64.76
2022-08-01T17:47:06.450Z,65.12
2022-08-01T17:51:18.120Z,65.62
2022-08-01T17:55:53.570Z,66.05
2022-08-01T17:59:56.016Z,66.11
2022-08-01T18:04:05.947Z,66.45
2022-08-01T18:08:13.921Z,66.47
2022-08-01T18:12:24.273Z,67.10
2022-08-01T18:16:32.936Z,67.40
2022-08-01T18:20:40.177Z,67.87
2022-08-01T18:24:47.632Z,68.24
2022-08-01T18:28:55.277Z,68.34
2022-08-01T18:33:06.594Z,68.65
2022-08-01T18:37:16.988Z,68.85
2022-08-01T18:41:27.264Z,68.85
2022-08-01T18:45:39.512Z,69.28
2022-08-01T18:49:50.138Z,69.27
2022-08-01T18:53:58.140Z,69.28
2022-08-01T18:58:05.911Z,69.64
2022-08-01T19:02:13.201Z,69.59
2022-08-01T19:06:20.909Z,69.62
2022-08-01T19:10:29.111Z,69.76
2022-08-01T19:14:36.324Z,69.74
2022-08-01T19:18:44.380Z,69.92
2022-08-01T19:22:54.104Z,69.88
2022-08-01T19:27:05.073Z,70.01
2022-08-01T19:31:16.800Z,70.15
2022-08-01T19:35:25.474Z,70.31
2022-08-01T19:39:33.060Z,70.78
2022-08-01T19:43:44.798Z,71.11
2022-08-01T19:47:56.585Z,71.22
2022-08-01T19:52:06.362Z,71.43
2022-08-01T19:56:14.613Z,71.45
2022-08-01T20:00:28.344Z,71.62
2022-08-01T20:04:37.000Z,71.80
2022-08-01T20:08:44.857Z,71.93
2022-08-01T20:12:52.501Z,72.02
2022-08-01T20:17:02.062Z,72.05
2022-08-01T20:21:10.451Z,72.07
2022-08-01T20:25:19.993Z,72.20
2022-08-01T20:29:30.903Z,72.13
2022-08-01T20:33:43.017Z,72.10
2022-08-01T20:38:05.464Z,72.30
2022-08-01T20:42:15.466Z,72.34
2022-08-01T20:46:27.104Z,72.35
2022-08-01T20:50:54.803Z,72.43
2022-08-01T20:55:02.458Z,72.43
2022-08-01T20:59:40.151Z,72.55
2022-08-01T21:03:50.713Z,72.64
2022-08-01T21:08:04.527Z,72.84
2022-08-01T21:12:16.467Z,73.20
2022-08-01T21:16:30.347Z,73.43
2022-08-01T21:20:41.353Z,73.58
2022-08-01T21:24:58.876Z,73.83
2022-08-01T21:29:08.843Z,73.95
2022-08-01T21:33:16.896Z,74.10
2022-08-01T21:37:25.665Z,74.29
2022-08-01T21:41:56.255Z,74.41
2022-08-01T21:46:01.468Z,74.60
2022-08-01T21:50:11.230Z,74.78
2022-08-01T21:54:25.024Z,74.78
2022-08-01T21:58:40.182Z,74.85
2022-08-01T22:02:53.465Z,74.89
2022-08-01T22:07:03.110Z,74.84
2022-08-01T22:11:13.624Z,75.02
2022-08-01T22:15:25.498Z,75.04
2022-08-01T22:19:55.570Z,75.14
2022-08-01T22:24:05.324Z,75.09
2022-08-01T22:28:18.411Z,75.17
2022-08-01T22:32:28.801Z,75.43
2022-08-01T22:36:37.456Z,75.84
2022-08-01T22:40:50.459Z,75.86
2022-08-01T22:45:02.532Z,75.98
2022-08-01T22:49:17.394Z,76.20
2022-08-01T22:53:29.775Z,76.31
2022-08-01T22:57:40.048Z,76.49
2022-08-01T23:01:53.031Z,76.59
2022-08-01T23:06:05.594Z,76.52
2022-08-01T23:10:13.806Z,76.68
2022-08-01T23:14:24.761Z,76.64
2022-08-01T23:18:33.556Z,76.61
2022-08-01T23:22:41.029Z,76.63
2022-08-01T23:26:49.729Z,76.36
2022-08-01T23:30:57.943Z,76.35
2022-08-01T23:35:05.968Z,76.26
2022-08-01T23:39:14.298Z,76.49
2022-08-01T23:43:21.766Z,76.73
2022-08-01T23:47:29.454Z,76.83
2022-08-01T23:51:38.213Z,76.85
2022-08-01T23:55:46.128Z,77.13
2022-08-01T23:59:54.216Z,77.09
